createdAt,value
2018-03-04T00:00:10.958Z,52.3
2018-03-04T00:05:05.109Z,52.5
2018-03-04T00:10:07.753Z,52.5
2018-03-04T00:15:02.904Z,52.5
2018-03-04T00:20:03.193Z,52.6
2018-03-04T00:25:03.392Z,52.6
2018-03-04T00:30:05.162Z,52.8
2018-03-04T00:35:05.374Z,53
2018-03-04T00:40:02.950Z,53
2018-03-04T00:45:03.168Z,53
2018-03-04T00:50:03.371Z,53.1
2018-03-04T00:55:05.092Z,53.3
2018-03-04T01:00:08.354Z,53.3
2018-03-04T01:05:08.555Z,53.5
2018-03-04T01:10:03.125Z,53.5
2018-03-04T01:15:03.322Z,53.5
2018-03-04T01:20:02.613Z,53.4
2018-03-04T01:25:02.804Z,53.5
2018-03-04T01:30:02.980Z,53.4
2018-03-04T01:35:03.169Z,53.5
2018-03-04T01:40:02.778Z,53.6
2018-03-04T01:45:02.964Z,53.7
2018-03-04T01:50:03.225Z,53.6
2018-03-04T01:55:03.362Z,53.7
2018-03-04T02:00:02.579Z,53.7
2018-03-04T02:05:02.771Z,53.8
2018-03-04T02:10:03.492Z,53.8
2018-03-04T02:15:03.025Z,53.9
2018-03-04T02:20:03.610Z,54
2018-03-04T02:25:03.158Z,54.1
2018-03-04T02:30:02.799Z,54.2
2018-03-04T02:35:03.294Z,54.6
2018-03-04T02:40:03.279Z,54.5
2018-03-04T02:45:02.755Z,54.8
2018-03-04T02:50:03.313Z,54.8
2018-03-04T02:55:02.867Z,55
2018-03-04T03:00:03.424Z,55.2
2018-03-04T03:05:02.968Z,55.2
2018-03-04T03:10:05.425Z,55.3
2018-03-04T03:15:03.407Z,55.2
2018-03-04T03:20:08.008Z,55.3
2018-03-04T03:25:03.498Z,55.3
2018-03-04T03:30:05.581Z,55.6
2018-03-04T03:35:03.190Z,55.6
2018-03-04T03:40:05.540Z,55.8
2018-03-04T03:45:03.221Z,55.7
2018-03-04T03:50:03.484Z,55.9
2018-03-04T03:55:02.679Z,55.7
2018-03-04T04:00:05.476Z,55.9
2018-03-04T04:05:03.156Z,55.9
2018-03-04T04:10:02.978Z,55.6
2018-03-04T04:15:03.215Z,55.4
2018-03-04T04:20:03.540Z,55.5
2018-03-04T04:25:02.718Z,55.1
2018-03-04T04:30:02.926Z,55
2018-03-04T04:35:03.161Z,54.9
2018-03-04T04:40:02.814Z,54.9
2018-03-04T04:45:03.012Z,54.8
2018-03-04T04:50:03.200Z,54.4
2018-03-04T04:55:03.413Z,54.7
2018-03-04T05:00:02.642Z,54.8
2018-03-04T05:05:02.848Z,54.7
2018-03-04T05:10:05.199Z,55.1
2018-03-04T05:15:02.877Z,55.1
2018-03-04T05:20:03.232Z,55
2018-03-04T05:25:03.435Z,55.2
2018-03-04T05:30:02.659Z,55.4
2018-03-04T05:35:02.871Z,55.4
2018-03-04T05:40:13.600Z,55.5
2018-03-04T05:45:02.644Z,55.5
2018-03-04T05:50:02.881Z,55.5
2018-03-04T05:55:03.074Z,55.4
2018-03-04T06:00:03.345Z,55.2
2018-03-04T06:05:02.520Z,55.2
2018-03-04T06:10:03.152Z,55.4
2018-03-04T06:15:03.411Z,55.2
2018-03-04T06:20:02.753Z,54.9
2018-03-04T06:25:03.059Z,54.7
2018-03-04T06:30:02.848Z,54.4
2018-03-04T06:35:05.605Z,54.1
2018-03-04T06:40:05.924Z,53.7
2018-03-04T06:45:02.594Z,53.7
2018-03-04T06:50:03.174Z,53.1
2018-03-04T06:55:03.387Z,52.9
2018-03-04T07:00:02.656Z,52.7
2018-03-04T07:05:02.862Z,52.4
2018-03-04T07:10:02.649Z,52.4
2018-03-04T07:15:02.885Z,52.1
2018-03-04T07:20:03.224Z,51.9
2018-03-04T07:25:03.423Z,51.7
2018-03-04T07:30:02.685Z,51.6
2018-03-04T07:35:02.865Z,51.3
2018-03-04T07:40:02.690Z,51
2018-03-04T07:45:02.908Z,51
2018-03-04T07:50:03.154Z,50.8
2018-03-04T07:55:03.377Z,50.4
2018-03-04T08:00:05.210Z,49.8
2018-03-04T08:05:02.878Z,49.8
2018-03-04T08:10:02.681Z,49.8
2018-03-04T08:15:02.957Z,48.9
2018-03-04T08:20:03.440Z,48.9
2018-03-04T08:25:02.660Z,48.7
2018-03-04T08:30:02.928Z,48.3
2018-03-04T08:35:03.191Z,48.3
2018-03-04T08:40:02.982Z,48.1
2018-03-04T08:45:03.277Z,47.5
2018-03-04T08:50:03.540Z,47.4
2018-03-04T08:55:02.709Z,47.5
2018-03-04T09:00:03.003Z,47.3
2018-03-04T09:05:03.482Z,47.4
2018-03-04T09:10:03.100Z,46.7
2018-03-04T09:15:03.366Z,46.5
2018-03-04T09:20:02.760Z,46.3
2018-03-04T09:25:03.020Z,46.3
2018-03-04T09:30:03.284Z,45.7
2018-03-04T09:35:03.819Z,45.5
2018-03-04T09:40:02.515Z,45.6
2018-03-04T09:45:02.746Z,45.3
2018-03-04T09:50:03.083Z,45.3
2018-03-04T09:55:03.272Z,45.2
2018-03-04T10:00:03.618Z,44.5
2018-03-04T10:05:05.331Z,44.2
2018-03-04T10:10:03.035Z,44.2
2018-03-04T10:15:03.304Z,43.9
2018-03-04T10:20:02.601Z,43.6
2018-03-04T10:25:02.959Z,42.9
2018-03-04T10:30:03.265Z,42.6
2018-03-04T10:35:02.521Z,42.2
2018-03-04T10:40:03.375Z,42.1
2018-03-04T10:45:02.599Z,41.9
2018-03-04T10:50:02.911Z,41.8
2018-03-04T10:55:03.146Z,41.2
2018-03-04T11:00:03.421Z,41
2018-03-04T11:05:02.718Z,40.9
2018-03-04T11:10:03.485Z,40.4
2018-03-04T11:15:02.857Z,40.1
2018-03-04T11:20:03.220Z,39.9
2018-03-04T11:25:03.462Z,39.1
2018-03-04T11:30:02.706Z,39.1
2018-03-04T11:35:03.099Z,39
2018-03-04T11:40:02.823Z,38.7
2018-03-04T11:45:03.032Z,38.2
2018-03-04T11:50:03.272Z,37.9
2018-03-04T11:55:02.633Z,37.6
2018-03-04T12:00:02.986Z,37.5
2018-03-04T12:05:03.227Z,37.2
2018-03-04T12:10:03.047Z,36.9
2018-03-04T12:15:03.296Z,36.4
2018-03-04T12:20:02.732Z,36.3
2018-03-04T12:25:05.548Z,36.1
2018-03-04T12:30:02.877Z,36.1
2018-03-04T12:35:03.211Z,36.1
2018-03-04T12:40:03.059Z,35.9
2018-03-04T12:45:03.336Z,35.6
2018-03-04T12:50:03.217Z,35.5
2018-03-04T12:55:02.598Z,35.2
2018-03-04T13:00:02.983Z,34.6
2018-03-04T13:05:03.305Z,34.4
2018-03-04T13:10:03.101Z,33.9
2018-03-04T13:15:03.413Z,33.8
2018-03-04T13:20:02.850Z,34
2018-03-04T13:25:03.292Z,33.5
2018-03-04T13:30:02.603Z,33.2
2018-03-04T13:35:02.953Z,32.7
2018-03-04T13:40:02.765Z,33.1
2018-03-04T13:45:03.033Z,32.9
2018-03-04T13:50:05.894Z,32.7
2018-03-04T13:55:02.717Z,32.7
2018-03-04T14:00:03.008Z,31.7
2018-03-04T14:05:03.417Z,31.8
2018-03-04T14:10:05.652Z,30.8
2018-03-04T14:15:03.456Z,30.8
2018-03-04T14:20:02.840Z,30.6
2018-03-04T14:25:03.144Z,30.2
2018-03-04T14:30:03.452Z,30.4
2018-03-04T14:35:02.792Z,31.1
2018-03-04T14:40:02.669Z,30.5
2018-03-04T14:45:02.979Z,30.6
2018-03-04T14:50:03.260Z,30.8
2018-03-04T14:55:02.657Z,30
2018-03-04T15:00:02.947Z,30
2018-03-04T15:05:03.253Z,30.5
2018-03-04T15:10:03.098Z,30.9
2018-03-04T15:15:03.448Z,30.3
2018-03-04T15:20:02.851Z,30.2
2018-03-04T15:25:03.147Z,30.4
2018-03-04T15:30:08.489Z,31
2018-03-04T15:35:02.791Z,31
2018-03-04T15:40:02.655Z,29.9
2018-03-04T15:45:02.979Z,29.3
2018-03-04T15:50:05.806Z,29.1
2018-03-04T15:55:05.183Z,28.7
2018-03-04T16:00:03.535Z,28.7
2018-03-04T16:05:02.848Z,29.1
2018-03-04T16:10:02.700Z,30.5
2018-03-04T16:15:03.035Z,32
2018-03-04T16:20:08.424Z,34.1
2018-03-04T16:25:02.671Z,34.1
2018-03-04T16:30:03.012Z,34.6
2018-03-04T16:35:03.238Z,34.8
2018-03-04T16:40:03.070Z,35.2
2018-03-04T16:45:05.921Z,36
2018-03-04T16:50:03.419Z,36
2018-03-04T16:55:02.951Z,36.3
2018-03-04T17:00:03.282Z,36.8
2018-03-04T17:05:02.775Z,37.3
2018-03-04T17:10:02.704Z,37.8
2018-03-04T17:15:02.994Z,38.3
2018-03-04T17:20:05.893Z,38.7
2018-03-04T17:25:02.689Z,38.7
2018-03-04T17:30:02.994Z,38.7
2018-03-04T17:35:03.257Z,38.5
2018-03-04T17:40:03.086Z,38.2
2018-03-04T17:45:03.357Z,38.4
2018-03-04T17:50:02.716Z,38.1
2018-03-04T17:55:03.009Z,37.8
2018-03-04T18:00:03.282Z,37.7
2018-03-04T18:05:02.687Z,37.9
2018-03-04T18:10:05.954Z,37.6
2018-03-04T18:15:02.744Z,37.6
2018-03-04T18:20:03.130Z,37.4
2018-03-04T18:25:03.471Z,37.2
2018-03-04T18:30:05.272Z,37
2018-03-04T18:35:03.085Z,36.9
2018-03-04T18:40:03.012Z,37.2
2018-03-04T18:45:03.303Z,37.1
2018-03-04T18:50:02.600Z,37
2018-03-04T18:55:05.504Z,37.3
2018-03-04T19:00:02.761Z,37.3
2018-03-04T19:05:03.107Z,37.2
2018-03-04T19:10:02.820Z,37.3
2018-03-04T19:15:03.145Z,37.5
2018-03-04T19:20:03.516Z,37.5
2018-03-04T19:25:02.778Z,37.8
2018-03-04T19:30:03.066Z,37.9
2018-03-04T19:35:03.411Z,38.1
2018-03-04T19:40:03.101Z,38.1
2018-03-04T19:45:03.386Z,38.3
2018-03-04T19:50:02.606Z,38.7
2018-03-04T19:55:02.964Z,38.6
2018-03-04T20:00:03.286Z,38.8
2018-03-04T20:05:02.733Z,38.9
2018-03-04T20:10:03.533Z,39.1
2018-03-04T20:15:02.852Z,39.1
2018-03-04T20:20:03.240Z,39.3
2018-03-04T20:25:03.490Z,39.3
2018-03-04T20:30:05.415Z,39.6
2018-03-04T20:35:03.110Z,39.6
2018-03-04T20:40:02.812Z,39.6
2018-03-04T20:45:03.144Z,39.7
2018-03-04T20:50:03.478Z,40
2018-03-04T20:55:02.962Z,40
2018-03-04T21:00:03.260Z,40.1
2018-03-04T21:05:02.519Z,40.3
2018-03-04T21:10:03.366Z,40.4
2018-03-04T21:15:02.624Z,40.5
2018-03-04T21:20:03.090Z,40.5
2018-03-04T21:25:03.327Z,40.6
2018-03-04T21:30:02.596Z,40.7
2018-03-04T21:35:02.863Z,41
2018-03-04T21:40:02.754Z,41.1
2018-03-04T21:45:03.044Z,41.2
2018-03-04T21:50:03.306Z,41.2
2018-03-04T21:55:02.624Z,41.6
2018-03-04T22:00:02.947Z,41.7
2018-03-04T22:05:03.219Z,41.7
2018-03-04T22:10:02.950Z,41.8
2018-03-04T22:15:03.202Z,41.9
2018-03-04T22:20:02.560Z,42
2018-03-04T22:25:02.800Z,41.9
2018-03-04T22:30:03.018Z,41.9
2018-03-04T22:35:03.246Z,42.1
2018-03-04T22:40:05.577Z,42.3
2018-03-04T22:45:03.285Z,42.3
2018-03-04T22:50:02.592Z,42.6
2018-03-04T22:55:02.801Z,42.5
2018-03-04T23:00:03.019Z,42.6
2018-03-04T23:05:03.235Z,42.7
2018-03-04T23:10:03.040Z,42.8
2018-03-04T23:15:03.284Z,42.9
2018-03-04T23:20:02.727Z,43.4
2018-03-04T23:25:03.014Z,43.4
2018-03-04T23:30:03.295Z,43.3
2018-03-04T23:35:02.540Z,43.6
2018-03-04T23:40:03.368Z,43.5
2018-03-04T23:45:02.585Z,43.7
2018-03-04T23:50:02.935Z,43.8
2018-03-04T23:55:03.134Z,44
